Time;durP1;ratioP1;P1;durP2;ratioP2;P2;SDS_P1;SDS_P2;PMS_P1;PMS_P2;Temp;Humidity;BMP_temperature;BMP_pressure;BME280_temperature;BME280_humidity;BME280_pressure;Samples;Min_cycle;Max_cycle;Signal;HPM_P1;HPM_P2
2022/12/05 08:47:59;;;;;;;7.63;4.77;;;21.10;39.70;;;;;;5097175;27;20532;-54
2022/12/05 08:50:25;;;;;;;5.60;4.35;;;20.80;43.90;;;;;;5087187;28;20200;-56
2022/12/05 08:54:00;;;;;;;5.38;3.28;;;20.90;44.90;;;;;;5122269;27;20578;-59
2022/12/05 08:56:26;;;;;;;3.53;3.22;;;21.30;46.00;;;;;;5097703;28;20216;-64
2022/12/05 08:58:53;;;;;;;3.30;2.67;;;21.30;46.50;;;;;;5096650;28;20210;-64
2022/12/05 09:01:19;;;;;;;3.38;2.88;;;21.30;46.50;;;;;;5106833;28;20245;-61
2022/12/05 09:03:46;;;;;;;3.92;2.60;;;21.30;46.80;;;;;;5101194;28;20208;-61
2022/12/05 09:06:12;;;;;;;2.70;2.50;;;21.30;47.10;;;;;;5099253;28;20220;-63
2022/12/05 09:08:39;;;;;;;3.22;2.65;;;21.30;47.30;;;;;;5096053;28;20203;-63
2022/12/05 09:11:05;;;;;;;2.83;2.30;;;21.30;47.40;;;;;;5105650;28;20214;-63
2022/12/05 09:13:32;;;;;;;2.55;1.95;;;21.30;48.10;;;;;;5114919;28;20280;-62
2022/12/05 09:15:58;;;;;;;2.55;1.90;;;21.30;47.60;;;;;;5107123;28;20321;-62
2022/12/05 09:18:24;;;;;;;4.57;2.63;;;21.30;47.70;;;;;;5103594;28;20200;-62
2022/12/05 09:20:51;;;;;;;1.77;1.63;;;21.30;47.80;;;;;;5103643;28;20203;-62
2022/12/05 09:23:17;;;;;;;2.00;1.90;;;21.30;47.90;;;;;;5096371;28;20719;-64
2022/12/05 09:25:44;;;;;;;2.70;2.00;;;21.60;49.40;;;;;;5063316;28;20228;-66
2022/12/05 09:28:10;;;;;;;3.63;1.65;;;21.80;48.30;;;;;;5053779;27;20234;-66
2022/12/05 09:30:37;;;;;;;2.13;1.58;;;22.10;47.80;;;;;;5041617;28;20194;-62
2022/12/05 09:33:03;;;;;;;1.70;1.48;;;22.00;47.70;;;;;;5043784;28;20234;-59
2022/12/05 09:35:30;;;;;;;2.08;1.30;;;21.80;48.20;;;;;;5043300;28;20200;-61
2022/12/05 09:37:56;;;;;;;1.42;1.33;;;21.70;48.60;;;;;;5043495;28;20222;-61
2022/12/05 09:40:22;;;;;;;1.98;1.58;;;21.60;48.70;;;;;;5039197;28;20208;-60
2022/12/05 09:42:49;;;;;;;1.88;1.50;;;21.50;48.90;;;;;;5036798;28;20352;-60
2022/12/05 09:45:16;;;;;;;4.90;2.47;;;21.50;49.70;;;;;;5042340;28;20284;-61
2022/12/05 09:47:42;;;;;;;5.65;5.05;;;21.40;47.10;;;;;;5064057;28;20596;-59
2022/12/05 09:50:09;;;;;;;6.32;5.00;;;21.20;43.50;;;;;;5044171;28;20572;-59
2022/12/05 09:52:35;;;;;;;8.73;5.53;;;21.10;40.30;;;;;;5042826;28;20226;-60
2022/12/05 09:55:02;;;;;;;7.82;5.40;;;20.80;38.10;;;;;;5047814;28;20206;-59
2022/12/05 09:57:28;;;;;;;8.10;4.65;;;20.70;40.00;;;;;;5032104;28;20222;-59
2022/12/05 09:59:55;;;;;;;4.53;3.92;;;20.70;40.90;;;;;;5042346;28;20206;-62
2022/12/05 10:04:10;;;;;;;10.90;9.10;;;21.00;44.40;;;;;;5120876;27;20593;-71
2022/12/05 10:06:37;;;;;;;11.13;9.90;;;11.20;38.90;;;;;;5110791;27;20242;-72
2022/12/05 10:09:03;;;;;;;12.20;9.90;;;7.70;49.80;;;;;;5100621;28;20208;-68
2022/12/05 10:11:29;;;;;;;10.40;9.30;;;6.30;55.50;;;;;;5097158;28;20227;-66
2022/12/05 10:13:56;;;;;;;12.93;9.80;;;5.70;57.70;;;;;;5077201;27;20255;-67
2022/12/05 10:16:22;;;;;;;11.30;9.77;;;5.70;59.30;;;;;;5085005;27;20295;-67
2022/12/05 10:18:49;;;;;;;5.80;4.57;;;5.50;60.00;;;;;;5091908;27;20702;-61
2022/12/05 10:21:15;;;;;;;6.03;4.53;;;9.00;91.50;;;;;;5098521;28;20201;-60
2022/12/05 10:23:42;;;;;;;5.80;4.30;;;15.20;86.50;;;;;;5097058;28;20230;-62
2022/12/05 10:26:08;;;;;;;3.97;3.67;;;17.90;58.10;;;;;;5103081;28;20220;-60
2022/12/05 10:28:35;;;;;;;3.13;2.83;;;19.00;53.50;;;;;;5102090;28;20216;-61
2022/12/05 10:31:01;;;;;;;5.53;3.63;;;19.40;52.50;;;;;;5100773;28;20208;-61
2022/12/05 10:33:27;;;;;;;4.07;2.97;;;19.60;51.70;;;;;;5098249;28;20299;-60
2022/12/05 10:35:54;;;;;;;3.30;3.00;;;19.80;51.10;;;;;;5100541;28;20643;-60
2022/12/05 10:38:20;;;;;;;3.37;2.73;;;19.80;50.50;;;;;;5105548;28;20689;-60
2022/12/05 10:40:47;;;;;;;3.73;3.17;;;19.90;50.10;;;;;;5101182;28;20206;-61
2022/12/05 10:43:13;;;;;;;3.67;3.10;;;19.90;49.50;;;;;;5095901;28;20215;-57
2022/12/05 10:45:40;;;;;;;4.60;3.10;;;19.90;49.60;;;;;;5095599;28;20223;-61
2022/12/05 10:48:06;;;;;;;4.87;3.67;;;20.00;49.50;;;;;;5105986;28;20207;-61
2022/12/05 10:50:32;;;;;;;3.28;2.88;;;19.90;48.70;;;;;;5098461;28;20212;-60
2022/12/05 10:52:59;;;;;;;6.47;2.47;;;19.90;49.40;;;;;;5096094;28;20207;-59
2022/12/05 10:55:25;;;;;;;3.72;2.60;;;19.80;50.20;;;;;;5104343;28;20881;-60
2022/12/05 10:57:52;;;;;;;3.45;2.70;;;19.90;51.70;;;;;;5096285;28;20205;-66
2022/12/05 11:00:18;;;;;;;2.90;2.55;;;20.00;51.00;;;;;;5095956;28;20200;-59
2022/12/05 11:02:45;;;;;;;3.28;2.63;;;19.90;51.20;;;;;;5102949;28;20234;-59
2022/12/05 11:05:11;;;;;;;3.85;2.42;;;19.90;51.00;;;;;;5095554;28;20224;-60
2022/12/05 11:07:38;;;;;;;3.03;2.60;;;19.90;51.10;;;;;;5091081;28;20694;-60
2022/12/05 11:10:04;;;;;;;3.10;2.50;;;19.90;50.90;;;;;;5094311;28;20569;-60
2022/12/05 11:12:31;;;;;;;2.78;2.55;;;19.80;50.90;;;;;;5051111;22;20599;-59
2022/12/05 11:14:57;;;;;;;3.10;2.30;;;19.80;51.30;;;;;;5004311;28;20230;-58
2022/12/05 11:17:23;;;;;;;2.60;2.40;;;19.80;51.00;;;;;;4999898;28;20212;-60
2022/12/05 11:19:50;;;;;;;3.33;2.33;;;19.80;51.10;;;;;;5002646;28;20542;-60
2022/12/05 11:22:16;;;;;;;4.80;2.50;;;19.80;51.40;;;;;;4975934;28;20592;-60
2022/12/05 11:24:43;;;;;;;3.15;2.85;;;19.80;51.10;;;;;;5003697;28;20723;-51
2022/12/05 11:27:10;;;;;;;4.00;2.20;;;20.10;58.80;;;;;;5008912;28;20563;-61
2022/12/05 11:29:37;;;;;;;2.53;2.33;;;20.00;52.60;;;;;;4997897;28;20569;-62
2022/12/05 11:32:03;;;;;;;3.72;2.15;;;19.90;52.70;;;;;;5002327;28;20667;-44
2022/12/05 11:34:30;;;;;;;2.78;2.30;;;20.30;52.10;;;;;;5000114;28;20228;-44
2022/12/05 11:36:56;;;;;;;2.58;2.13;;;20.80;50.80;;;;;;4994513;28;20246;-47
2022/12/05 11:39:22;;;;;;;3.20;2.38;;;21.10;49.80;;;;;;4995576;28;20211;-46
2022/12/05 11:41:49;;;;;;;2.85;2.00;;;21.20;50.30;;;;;;5005069;28;20256;-46
2022/12/05 11:44:15;;;;;;;4.13;2.30;;;21.30;50.00;;;;;;4995601;28;20593;-45
2022/12/05 11:46:42;;;;;;;2.60;2.15;;;21.30;50.00;;;;;;4992551;28;20664;-42
2022/12/05 11:49:08;;;;;;;2.63;2.03;;;21.30;49.90;;;;;;4993438;28;20605;-44
2022/12/05 11:51:35;;;;;;;2.50;2.30;;;21.30;49.70;;;;;;5003532;28;20205;-55
2022/12/05 11:54:01;;;;;;;3.53;2.33;;;21.30;49.80;;;;;;4989129;28;20243;-48
2022/12/05 11:56:27;;;;;;;2.20;1.98;;;21.30;49.60;;;;;;4991493;28;20204;-53
2022/12/05 11:58:54;;;;;;;3.28;2.20;;;21.30;49.70;;;;;;4998698;28;20195;-47
2022/12/05 12:01:22;;;;;;;2.95;2.30;;;21.30;49.90;;;;;;4993008;28;21070;-47
2022/12/05 12:03:48;;;;;;;3.28;2.30;;;21.30;50.00;;;;;;4989845;28;20263;-49
2022/12/05 12:06:15;;;;;;;3.42;2.38;;;21.30;50.00;;;;;;4990776;28;20303;-51
2022/12/05 12:08:41;;;;;;;3.28;2.58;;;21.20;49.90;;;;;;5004784;28;20306;-49
2022/12/05 12:11:08;;;;;;;3.85;2.60;;;21.30;50.00;;;;;;4982300;28;20662;-50
2022/12/05 12:13:34;;;;;;;3.45;2.53;;;21.30;49.80;;;;;;4993873;28;20224;-54
2022/12/05 12:16:01;;;;;;;2.53;2.33;;;21.30;49.70;;;;;;5000178;28;20203;-49
2022/12/05 12:18:27;;;;;;;4.43;2.10;;;21.30;49.70;;;;;;4993870;28;20199;-83
2022/12/05 12:20:53;;;;;;;2.13;1.92;;;21.40;50.10;;;;;;4988839;28;20299;-81
2022/12/05 12:23:20;;;;;;;3.75;2.53;;;21.70;49.00;;;;;;4992659;28;20241;-80
2022/12/05 12:25:46;;;;;;;9.13;6.38;;;21.90;48.70;;;;;;4977804;28;20295;-79
2022/12/05 12:28:13;;;;;;;32.05;20.40;;;21.90;48.70;;;;;;4982187;28;20242;-79
2022/12/05 12:30:39;;;;;;;146.93;104.43;;;21.90;48.40;;;;;;4991815;28;20311;-69
2022/12/05 12:33:06;;;;;;;245.48;184.00;;;22.00;48.90;;;;;;4996259;28;20239;-71
2022/12/05 12:35:32;;;;;;;282.77;213.70;;;22.00;49.20;;;;;;5000424;28;20318;-71
2022/12/05 12:37:59;;;;;;;320.85;249.75;;;22.00;49.60;;;;;;4999973;28;20229;-71
2022/12/05 12:40:25;;;;;;;338.58;275.10;;;22.00;49.70;;;;;;4988979;28;20239;-71
2022/12/05 12:42:52;;;;;;;343.45;282.27;;;22.00;50.20;;;;;;4987348;28;20242;-71
2022/12/05 12:45:19;;;;;;;353.75;286.75;;;22.00;50.50;;;;;;4987500;28;20210;-73
2022/12/05 12:47:46;;;;;;;339.92;272.55;;;22.00;50.60;;;;;;4991956;28;20207;-72
2022/12/05 12:50:12;;;;;;;326.92;270.08;;;22.00;50.60;;;;;;4984416;28;20208;-71
2022/12/05 12:52:39;;;;;;;263.92;205.57;;;22.00;50.80;;;;;;4990648;28;20225;-71
2022/12/05 12:55:06;;;;;;;133.05;104.25;;;21.20;43.00;;;;;;4985765;28;20247;-70
2022/12/05 12:57:33;;;;;;;72.15;55.33;;;19.00;38.50;;;;;;4992207;28;20231;-71
2022/12/05 12:59:59;;;;;;;35.72;27.27;;;17.80;37.50;;;;;;4984331;28;20239;-71
2022/12/05 13:02:26;;;;;;;25.73;21.45;;;17.40;35.90;;;;;;4984822;28;20605;-73
2022/12/05 13:04:52;;;;;;;24.55;19.13;;;18.10;37.70;;;;;;4990777;28;20566;-71
2022/12/05 13:07:19;;;;;;;22.58;17.90;;;19.10;37.40;;;;;;4997088;28;20234;-71
2022/12/05 13:09:45;;;;;;;20.30;16.05;;;19.80;37.20;;;;;;4991930;28;20702;-71
2022/12/05 13:12:11;;;;;;;19.08;14.93;;;20.30;37.20;;;;;;4982890;28;20228;-72
2022/12/05 13:14:38;;;;;;;19.35;14.77;;;20.60;37.20;;;;;;4981652;28;20236;-71
2022/12/05 13:17:04;;;;;;;17.58;14.70;;;20.80;37.40;;;;;;4983124;28;20330;-72
2022/12/05 13:19:36;;;;;;;16.23;12.32;;;21.00;37.60;;;;;;4983242;28;21562;-71
2022/12/05 13:22:02;;;;;;;14.65;12.15;;;21.20;38.10;;;;;;4983698;28;20242;-71
2022/12/05 13:24:28;;;;;;;13.70;12.27;;;21.30;38.50;;;;;;4974740;28;20239;-71
2022/12/05 13:26:55;;;;;;;15.35;11.52;;;21.40;38.80;;;;;;4967695;28;20236;-71
2022/12/05 13:29:21;;;;;;;14.13;10.85;;;21.50;39.10;;;;;;4986107;28;20238;-71
2022/12/05 13:31:48;;;;;;;13.48;10.40;;;21.50;40.10;;;;;;4991183;28;20201;-71
2022/12/05 13:34:14;;;;;;;13.30;10.23;;;21.60;39.80;;;;;;4987492;28;20676;-71
2022/12/05 13:42:12;;;;;;;10.77;7.88;;;21.50;39.60;;;;;;4986353;28;20653;-73
2022/12/05 13:44:38;;;;;;;9.60;7.85;;;21.50;39.80;;;;;;4985987;28;20227;-74
2022/12/05 13:47:08;;;;;;;9.35;7.53;;;21.60;40.20;;;;;;4945179;28;20236;-73
2022/12/05 13:49:35;;;;;;;12.50;6.10;;;21.60;40.40;;;;;;4969321;28;20204;-71
2022/12/05 13:52:01;;;;;;;7.00;6.30;;;21.60;40.80;;;;;;4984769;28;20228;-71
2022/12/05 13:54:28;;;;;;;6.78;6.00;;;21.60;40.80;;;;;;4984623;28;20579;-71
2022/12/05 13:56:54;;;;;;;8.15;6.03;;;21.60;40.80;;;;;;4977096;28;20247;-71
2022/12/05 13:59:21;;;;;;;6.18;5.25;;;21.60;40.80;;;;;;4987046;28;20744;-71
2022/12/05 14:01:47;;;;;;;6.15;5.05;;;21.70;41.30;;;;;;4983277;28;20231;-71
2022/12/05 14:04:14;;;;;;;5.32;4.80;;;21.60;41.50;;;;;;4982079;28;20583;-71
2022/12/05 14:06:40;;;;;;;6.65;4.90;;;21.60;41.70;;;;;;4981260;28;20563;-71
2022/12/05 14:09:07;;;;;;;5.03;4.22;;;21.60;41.80;;;;;;4982186;28;20214;-71
2022/12/05 14:11:33;;;;;;;5.07;4.22;;;21.60;42.00;;;;;;4981022;28;20286;-72
2022/12/05 14:13:59;;;;;;;5.45;3.83;;;21.60;42.10;;;;;;4986863;28;20207;-72
2022/12/05 14:16:26;;;;;;;4.18;3.78;;;21.60;42.30;;;;;;4983470;28;20214;-73
2022/12/05 14:18:52;;;;;;;5.25;3.85;;;21.60;42.50;;;;;;4984225;28;20295;-72
2022/12/05 14:21:19;;;;;;;4.32;3.30;;;21.60;42.60;;;;;;4984737;28;20223;-73
2022/12/05 14:23:45;;;;;;;4.07;3.10;;;21.60;42.80;;;;;;4962751;28;20237;-72
2022/12/05 14:26:12;;;;;;;3.85;3.40;;;21.60;42.90;;;;;;4982402;28;20207;-71
2022/12/05 14:28:38;;;;;;;3.75;3.00;;;21.60;43.10;;;;;;4981860;28;20238;-72
2022/12/05 14:31:05;;;;;;;3.58;3.28;;;21.60;43.10;;;;;;4979387;28;20742;-71
2022/12/05 14:33:32;;;;;;;3.72;2.78;;;21.60;43.20;;;;;;4986198;28;20301;-71
2022/12/05 14:35:58;;;;;;;2.97;2.45;;;21.60;43.40;;;;;;4941314;28;20330;-71
2022/12/05 14:38:24;;;;;;;3.42;2.72;;;21.60;43.40;;;;;;4981211;28;20232;-71
2022/12/05 14:40:51;;;;;;;3.17;2.63;;;21.60;43.60;;;;;;4980939;28;20208;-71
2022/12/05 14:43:17;;;;;;;2.75;2.45;;;21.50;43.20;;;;;;4987251;28;20230;-72
2022/12/05 14:45:46;;;;;;;3.22;2.50;;;21.50;43.50;;;;;;4982147;28;20216;-72
2022/12/05 14:48:13;;;;;;;2.40;2.20;;;21.50;43.70;;;;;;4985190;28;20283;-72
2022/12/05 14:50:39;;;;;;;2.75;1.92;;;21.50;43.70;;;;;;4972735;28;20288;-73
2022/12/05 14:53:06;;;;;;;3.28;2.10;;;21.60;43.90;;;;;;4984179;28;20206;-73
2022/12/05 14:55:32;;;;;;;2.08;1.67;;;21.60;44.10;;;;;;4985112;28;20200;-72
2022/12/05 14:57:58;;;;;;;3.38;1.70;;;21.60;44.20;;;;;;4987631;28;20212;-70
2022/12/05 15:00:25;;;;;;;1.73;1.63;;;21.60;44.20;;;;;;4988969;28;20574;-70
2022/12/05 15:02:51;;;;;;;3.35;1.73;;;21.60;44.40;;;;;;5000334;28;20219;-69
2022/12/05 15:05:18;;;;;;;4.57;1.50;;;21.60;44.40;;;;;;4987804;28;20206;-69
2022/12/05 15:07:44;;;;;;;4.25;1.60;;;21.60;44.70;;;;;;4976911;28;20235;-67
2022/12/05 15:10:11;;;;;;;2.03;1.52;;;21.60;44.80;;;;;;4986523;28;20203;-67
2022/12/05 15:12:37;;;;;;;1.70;1.60;;;21.70;44.90;;;;;;4987636;28;20266;-67
2022/12/05 15:15:04;;;;;;;1.40;1.30;;;21.60;45.10;;;;;;4989487;28;20226;-67
2022/12/05 15:17:31;;;;;;;1.95;1.50;;;21.70;45.80;;;;;;4992107;28;20656;-66
2022/12/05 15:19:57;;;;;;;2.42;1.40;;;21.60;45.10;;;;;;4988795;28;20291;-66
2022/12/05 15:22:24;;;;;;;1.40;1.30;;;21.50;45.20;;;;;;4991409;28;20227;-66
2022/12/05 15:24:50;;;;;;;1.92;1.65;;;21.60;45.50;;;;;;4991434;28;20238;-66
2022/12/05 15:27:16;;;;;;;2.42;1.17;;;21.50;45.40;;;;;;4990238;28;20752;-66
2022/12/05 15:29:43;;;;;;;1.38;1.27;;;21.50;45.40;;;;;;4990706;28;20199;-66
2022/12/05 15:32:09;;;;;;;1.80;1.20;;;21.50;45.40;;;;;;4996176;28;20234;-66
2022/12/05 15:34:36;;;;;;;1.48;1.38;;;21.40;45.40;;;;;;4992432;28;20208;-66
2022/12/05 15:37:02;;;;;;;1.02;1.02;;;21.50;45.50;;;;;;4994319;28;20216;-66
2022/12/05 15:39:29;;;;;;;2.45;1.40;;;21.40;45.40;;;;;;4988958;28;20699;-66
2022/12/05 15:41:55;;;;;;;3.03;1.13;;;21.40;45.40;;;;;;4990631;28;20329;-66
2022/12/05 15:44:21;;;;;;;1.55;1.15;;;21.40;45.40;;;;;;4992214;28;20800;-66
2022/12/05 15:46:48;;;;;;;1.17;1.13;;;21.40;45.60;;;;;;5000173;28;20652;-66
2022/12/05 15:49:14;;;;;;;3.03;1.10;;;21.40;45.50;;;;;;4992993;28;20203;-66
2022/12/05 15:51:41;;;;;;;1.00;1.00;;;21.30;45.70;;;;;;5002996;28;20231;-66
2022/12/05 15:54:07;;;;;;;1.42;1.15;;;21.30;45.80;;;;;;4995564;28;20203;-66
2022/12/05 15:56:34;;;;;;;1.85;1.50;;;21.20;45.80;;;;;;4999670;28;20203;-66
2022/12/05 15:59:01;;;;;;;1.10;1.00;;;21.20;45.90;;;;;;4991473;28;20212;-66
2022/12/05 16:01:28;;;;;;;1.08;1.00;;;21.10;46.00;;;;;;4998665;28;20234;-66
2022/12/05 16:03:55;;;;;;;1.38;1.20;;;21.10;46.10;;;;;;4991920;28;20255;-66
2022/12/05 16:06:21;;;;;;;1.27;1.00;;;21.10;46.20;;;;;;4989990;28;20295;-66
2022/12/05 16:08:47;;;;;;;1.10;1.05;;;21.10;46.20;;;;;;4992525;28;20207;-66
2022/12/05 16:11:14;;;;;;;0.90;0.90;;;21.10;46.10;;;;;;4990667;28;20233;-67
2022/12/05 16:13:40;;;;;;;1.73;1.40;;;21.10;46.20;;;;;;4989548;28;20203;-67
2022/12/05 16:16:07;;;;;;;1.70;1.00;;;21.10;46.30;;;;;;4998871;28;20242;-67
2022/12/05 16:18:33;;;;;;;0.82;0.82;;;21.10;46.40;;;;;;4988267;28;20199;-67
2022/12/05 16:20:59;;;;;;;1.00;1.00;;;21.10;46.40;;;;;;4990961;28;20235;-67
2022/12/05 16:23:26;;;;;;;1.75;0.90;;;21.10;46.30;;;;;;4991502;28;20210;-67
2022/12/05 16:25:52;;;;;;;1.27;1.13;;;21.10;46.40;;;;;;4993034;28;20303;-67
2022/12/05 16:28:19;;;;;;;1.08;1.02;;;21.10;46.40;;;;;;4989146;28;20204;-67
2022/12/05 16:30:45;;;;;;;1.00;1.00;;;21.10;46.40;;;;;;4990216;28;20243;-67
2022/12/05 16:33:12;;;;;;;0.93;0.93;;;21.00;46.40;;;;;;4990102;28;20204;-67
2022/12/05 16:35:38;;;;;;;0.77;0.77;;;21.10;46.30;;;;;;4989718;28;20212;-67
2022/12/05 16:38:04;;;;;;;0.90;0.90;;;21.10;46.30;;;;;;4990802;28;20210;-67
2022/12/05 16:40:31;;;;;;;0.98;0.98;;;21.10;46.30;;;;;;4988589;28;20683;-67
2022/12/05 16:42:57;;;;;;;1.00;1.00;;;21.10;46.20;;;;;;4989672;28;20200;-67
2022/12/05 16:45:24;;;;;;;1.77;0.88;;;21.10;46.20;;;;;;4987950;28;20257;-67
2022/12/05 16:47:50;;;;;;;1.40;0.80;;;21.10;46.30;;;;;;4982532;28;20360;-67
2022/12/05 16:50:16;;;;;;;0.80;0.80;;;21.10;46.20;;;;;;4984096;28;20235;-66
2022/12/05 16:52:43;;;;;;;0.88;0.88;;;21.10;46.30;;;;;;4988809;28;20211;-67
2022/12/05 16:55:09;;;;;;;0.82;0.80;;;21.10;46.30;;;;;;4991545;28;20200;-67
2022/12/05 16:57:36;;;;;;;0.70;0.70;;;21.10;46.30;;;;;;4993526;28;20199;-67
2022/12/05 17:00:05;;;;;;;0.90;0.90;;;21.00;46.60;;;;;;4976446;28;20723;-77
2022/12/05 17:02:31;;;;;;;1.00;1.00;;;21.10;46.70;;;;;;4970663;28;20221;-78
2022/12/05 17:04:57;;;;;;;0.95;0.95;;;21.20;46.20;;;;;;4973766;28;20236;-76
2022/12/05 17:07:24;;;;;;;0.80;0.80;;;21.20;46.00;;;;;;4974582;28;20212;-76
2022/12/05 17:09:50;;;;;;;0.93;0.90;;;21.20;45.90;;;;;;4972157;28;20227;-76
2022/12/05 17:12:17;;;;;;;1.77;0.90;;;21.20;46.00;;;;;;4973236;28;21353;-75
2022/12/05 17:14:44;;;;;;;0.90;0.90;;;21.30;45.90;;;;;;4980076;28;20203;-77
2022/12/05 17:17:11;;;;;;;1.40;1.30;;;21.20;45.90;;;;;;4968521;28;20208;-72
2022/12/05 17:19:37;;;;;;;1.20;1.10;;;21.30;45.80;;;;;;4972417;28;20247;-69
2022/12/05 17:22:03;;;;;;;1.90;1.00;;;21.40;45.80;;;;;;4982295;28;20208;-80
2022/12/05 17:24:30;;;;;;;1.23;1.13;;;21.40;45.80;;;;;;4994524;28;20239;-73
2022/12/05 17:26:56;;;;;;;1.20;1.10;;;21.40;45.90;;;;;;4990899;28;20203;-73
2022/12/05 17:29:23;;;;;;;1.20;1.10;;;21.40;45.90;;;;;;4996878;28;20224;-71
2022/12/05 17:31:49;;;;;;;1.10;1.00;;;21.40;45.90;;;;;;4994864;28;20660;-72
2022/12/05 17:34:16;;;;;;;1.20;1.10;;;21.30;45.80;;;;;;4997321;28;20664;-71
2022/12/05 17:36:42;;;;;;;1.10;1.00;;;21.30;45.90;;;;;;5000731;28;20203;-71
2022/12/05 17:39:08;;;;;;;1.08;0.93;;;21.40;46.00;;;;;;4987590;28;20208;-74
2022/12/05 17:41:35;;;;;;;0.90;0.90;;;21.40;46.10;;;;;;4991011;28;20207;-73
2022/12/05 17:44:02;;;;;;;1.73;1.30;;;21.40;46.00;;;;;;5004444;28;20235;-73
2022/12/05 17:46:28;;;;;;;1.00;1.00;;;21.40;46.00;;;;;;4989621;28;20747;-74
2022/12/05 17:48:54;;;;;;;1.65;1.27;;;21.40;46.00;;;;;;5005894;28;20214;-72
2022/12/05 17:51:21;;;;;;;0.85;0.85;;;21.40;46.00;;;;;;4988002;28;20235;-72
2022/12/05 17:53:47;;;;;;;0.90;0.90;;;21.40;46.00;;;;;;4988678;28;20647;-72
2022/12/05 17:56:14;;;;;;;0.95;0.95;;;21.40;46.00;;;;;;4970740;28;21215;-73
2022/12/05 17:58:40;;;;;;;0.95;0.93;;;21.40;46.00;;;;;;4969893;28;20211;-73
2022/12/05 18:01:06;;;;;;;1.83;1.10;;;21.40;46.00;;;;;;4968374;28;20228;-74
2022/12/05 18:03:33;;;;;;;0.90;0.90;;;21.40;46.00;;;;;;4970777;28;20208;-72
2022/12/05 18:06:02;;;;;;;0.98;0.98;;;21.40;46.10;;;;;;4971984;28;20214;-77
2022/12/05 18:08:29;;;;;;;1.50;1.17;;;21.50;45.80;;;;;;4968941;28;20222;-74
2022/12/05 18:10:55;;;;;;;0.80;0.80;;;21.40;46.10;;;;;;4968453;28;20243;-73
2022/12/05 18:13:22;;;;;;;1.17;1.08;;;21.50;45.80;;;;;;4970316;28;20211;-73
2022/12/05 18:15:48;;;;;;;0.93;0.90;;;21.50;45.70;;;;;;4968045;28;20735;-75
2022/12/05 18:18:15;;;;;;;0.95;0.90;;;21.50;45.70;;;;;;4968165;28;20200;-74
2022/12/05 18:20:41;;;;;;;1.42;1.10;;;21.50;45.40;;;;;;4970144;28;20230;-74
2022/12/05 18:23:08;;;;;;;1.35;1.10;;;21.50;45.40;;;;;;4971028;28;20215;-74
2022/12/05 18:25:34;;;;;;;0.80;0.80;;;21.50;45.40;;;;;;4973288;28;20250;-84
2022/12/05 18:28:01;;;;;;;1.40;1.30;;;21.50;45.60;;;;;;4973851;28;20211;-79
2022/12/05 18:30:27;;;;;;;0.98;0.98;;;21.50;45.70;;;;;;4974888;28;20223;-80
2022/12/05 18:32:53;;;;;;;1.00;1.00;;;21.50;45.80;;;;;;4973440;28;20206;-75
2022/12/05 18:35:38;;;;;;;1.80;0.90;;;21.50;45.80;;;;;;4973931;28;20273;-76
2022/12/05 18:38:05;;;;;;;1.15;1.05;;;21.50;45.90;;;;;;4986271;28;20207;-72
2022/12/05 18:40:31;;;;;;;0.85;0.85;;;21.50;45.70;;;;;;4993620;28;20822;-72
2022/12/05 18:42:58;;;;;;;1.00;0.90;;;21.40;45.60;;;;;;4991522;28;20243;-74
2022/12/05 18:45:25;;;;;;;1.20;1.10;;;21.50;46.10;;;;;;4970317;28;22234;-78
2022/12/05 18:47:52;;;;;;;3.35;1.10;;;21.50;45.70;;;;;;4992624;28;20835;-72
2022/12/05 18:50:18;;;;;;;1.15;1.05;;;21.60;45.70;;;;;;4985320;28;20227;-78
2022/12/05 18:52:45;;;;;;;1.95;1.17;;;21.50;45.70;;;;;;4987020;28;20200;-75
2022/12/05 18:55:12;;;;;;;1.58;1.13;;;21.50;45.60;;;;;;5007404;28;20299;-71
2022/12/05 18:57:38;;;;;;;1.10;1.00;;;21.60;45.50;;;;;;4988069;28;20656;-71
2022/12/05 19:00:05;;;;;;;1.73;0.90;;;21.50;45.60;;;;;;4994680;28;20683;-71
2022/12/05 19:02:34;;;;;;;1.50;1.00;;;21.60;46.00;;;;;;4993059;28;20238;-70
2022/12/05 19:05:00;;;;;;;1.55;1.20;;;21.50;45.90;;;;;;4999631;28;20289;-70
2022/12/05 19:07:26;;;;;;;0.82;0.80;;;21.50;45.70;;;;;;4991355;28;20281;-71
2022/12/05 19:09:53;;;;;;;1.00;1.00;;;21.60;45.70;;;;;;4994164;28;20223;-79
2022/12/05 19:12:19;;;;;;;2.15;1.20;;;21.60;45.80;;;;;;4997890;28;20214;-75
2022/12/05 19:14:46;;;;;;;1.10;1.00;;;21.60;45.90;;;;;;5005306;28;20212;-73
2022/12/05 19:17:12;;;;;;;1.00;0.90;;;21.70;45.70;;;;;;4995821;28;20208;-76
2022/12/05 19:19:39;;;;;;;1.20;1.10;;;21.60;45.90;;;;;;4986812;28;20254;-75
2022/12/05 19:22:05;;;;;;;1.17;1.02;;;21.60;45.80;;;;;;4999690;28;20702;-73
2022/12/05 19:24:32;;;;;;;1.17;1.10;;;21.60;45.50;;;;;;4991940;28;20575;-74
2022/12/05 19:26:58;;;;;;;1.35;1.25;;;21.60;45.50;;;;;;4990068;28;20219;-72
2022/12/05 19:29:25;;;;;;;1.20;1.10;;;21.60;45.50;;;;;;4994517;28;20226;-76
2022/12/05 19:31:51;;;;;;;0.98;0.93;;;21.50;45.10;;;;;;4995979;28;20213;-75
2022/12/05 19:34:17;;;;;;;1.23;1.13;;;21.50;45.50;;;;;;4993196;28;20218;-70
2022/12/05 19:36:44;;;;;;;1.35;1.00;;;21.50;45.40;;;;;;5004520;28;20233;-68
2022/12/05 19:39:10;;;;;;;1.75;1.10;;;21.50;45.40;;;;;;4991205;28;20246;-69
2022/12/05 19:41:37;;;;;;;1.20;1.10;;;21.50;45.50;;;;;;5000145;28;20208;-71
2022/12/05 19:44:03;;;;;;;3.60;1.45;;;21.50;45.40;;;;;;4987656;28;20191;-71
2022/12/05 19:46:30;;;;;;;3.13;1.10;;;21.50;45.40;;;;;;5003372;28;20210;-70
2022/12/05 19:48:56;;;;;;;1.60;1.08;;;21.50;45.40;;;;;;5010085;28;20223;-69
2022/12/05 19:51:23;;;;;;;1.20;1.10;;;21.50;45.40;;;;;;4994356;28;20200;-70
2022/12/05 19:53:50;;;;;;;1.92;0.90;;;21.50;45.40;;;;;;4996569;28;20362;-74
2022/12/05 19:56:16;;;;;;;0.80;0.80;;;21.50;45.40;;;;;;5003989;28;20231;-77
2022/12/05 19:58:42;;;;;;;1.02;0.93;;;21.50;46.10;;;;;;5002955;28;20229;-78
2022/12/05 20:01:09;;;;;;;0.98;0.90;;;21.50;45.50;;;;;;4996895;28;20203;-75
2022/12/05 20:03:35;;;;;;;0.93;0.93;;;21.50;45.40;;;;;;4992040;28;20208;-73
2022/12/05 20:06:03;;;;;;;1.30;1.00;;;21.60;45.50;;;;;;4990791;28;20232;-71
2022/12/05 20:08:29;;;;;;;0.90;0.90;;;21.60;45.60;;;;;;4985765;28;20248;-70
2022/12/05 20:10:56;;;;;;;1.20;1.10;;;21.60;45.80;;;;;;4992848;28;20208;-71
2022/12/05 20:13:22;;;;;;;1.08;1.02;;;21.60;45.90;;;;;;4994708;28;20988;-72
2022/12/05 20:15:49;;;;;;;1.20;0.93;;;21.60;45.90;;;;;;5005157;28;20214;-71
2022/12/05 20:18:15;;;;;;;1.20;1.20;;;21.60;46.10;;;;;;4992661;28;20254;-75
2022/12/05 20:20:42;;;;;;;0.93;0.90;;;21.60;46.10;;;;;;4995375;28;20204;-76
2022/12/05 20:23:08;;;;;;;1.63;1.13;;;21.60;46.10;;;;;;4989303;28;20212;-76
2022/12/05 20:25:35;;;;;;;1.77;1.10;;;21.60;46.20;;;;;;5005024;28;20232;-77
2022/12/05 20:28:01;;;;;;;1.05;1.00;;;21.60;46.30;;;;;;5011102;28;20307;-73
2022/12/05 20:30:28;;;;;;;1.42;1.00;;;21.70;46.30;;;;;;4991027;28;20215;-74
2022/12/05 20:32:54;;;;;;;1.17;1.00;;;21.70;46.40;;;;;;4999259;28;20204;-75
2022/12/05 20:35:21;;;;;;;1.55;1.00;;;21.60;46.20;;;;;;5000073;28;20206;-73
2022/12/05 20:37:47;;;;;;;1.35;1.25;;;21.60;46.10;;;;;;5003055;28;20306;-67
2022/12/05 20:40:14;;;;;;;1.10;1.02;;;21.70;46.00;;;;;;4992269;28;20286;-69
2022/12/05 20:42:40;;;;;;;1.00;1.00;;;21.70;46.10;;;;;;4997749;28;20207;-70
2022/12/05 20:45:07;;;;;;;1.45;1.20;;;21.70;46.10;;;;;;4994367;28;20696;-71
2022/12/05 20:47:33;;;;;;;0.90;0.90;;;21.70;46.00;;;;;;4990051;28;20246;-71
2022/12/05 20:49:59;;;;;;;1.00;0.90;;;21.70;46.80;;;;;;4998987;28;20694;-68
2022/12/05 20:52:26;;;;;;;1.52;1.42;;;21.70;46.10;;;;;;5006511;28;20686;-71
2022/12/05 20:54:52;;;;;;;1.35;1.08;;;21.70;46.10;;;;;;5001835;28;20208;-67
2022/12/05 20:57:19;;;;;;;1.77;1.15;;;21.70;46.10;;;;;;4997973;28;20727;-73
2022/12/05 20:59:45;;;;;;;1.27;1.00;;;21.70;46.20;;;;;;4993919;28;20661;-76
2022/12/05 21:02:12;;;;;;;0.95;0.90;;;21.70;46.60;;;;;;4990321;28;20211;-77
2022/12/05 21:04:39;;;;;;;1.20;1.10;;;21.60;46.50;;;;;;4993118;28;20273;-76
2022/12/05 21:07:06;;;;;;;1.00;1.00;;;21.50;46.40;;;;;;4989553;28;20291;-69
2022/12/05 21:09:34;;;;;;;1.50;1.38;;;21.50;46.30;;;;;;4987230;28;20199;-70
2022/12/05 21:12:01;;;;;;;0.98;0.98;;;21.50;46.60;;;;;;4956618;28;20326;-70
2022/12/05 21:14:27;;;;;;;2.47;1.20;;;21.60;46.80;;;;;;4992122;28;20221;-70
2022/12/05 21:16:54;;;;;;;1.38;1.27;;;21.60;46.70;;;;;;4989245;28;20200;-70
2022/12/05 21:19:21;;;;;;;1.10;1.00;;;21.60;46.60;;;;;;4985592;28;20251;-70
2022/12/05 21:21:47;;;;;;;0.90;0.90;;;21.50;46.80;;;;;;4991660;28;20207;-70
2022/12/05 21:24:14;;;;;;;0.90;0.90;;;21.60;46.80;;;;;;4996664;28;20572;-74
2022/12/05 21:26:40;;;;;;;0.88;0.88;;;21.60;46.50;;;;;;4994765;28;20306;-76
2022/12/05 21:29:07;;;;;;;1.15;0.90;;;21.60;46.60;;;;;;4992916;28;20239;-77
2022/12/05 21:31:33;;;;;;;0.88;0.88;;;21.60;46.60;;;;;;4992935;28;20208;-77
2022/12/05 21:33:59;;;;;;;2.20;1.10;;;21.60;46.50;;;;;;5009149;28;20214;-72